sensor_id;sensor_type;location;lat;lon;timestamp;P1;durP1;ratioP1;P2;durP2;ratioP2
41263;SDS011;26998;48.714;9.414;2023-04-06T00:01:00;11.17;;;8.67;;
41263;SDS011;26998;48.714;9.414;2023-04-06T00:03:26;13.17;;;8.97;;
41263;SDS011;26998;48.714;9.414;2023-04-06T00:05:53;12.17;;;8.93;;
41263;SDS011;26998;48.714;9.414;2023-04-06T00:08:20;13.77;;;8.67;;
41263;SDS011;26998;48.714;9.414;2023-04-06T00:10:46;12.37;;;8.83;;
41263;SDS011;26998;48.714;9.414;2023-04-06T00:13:13;12.17;;;8.83;;
41263;SDS011;26998;48.714;9.414;2023-04-06T00:15:39;10.27;;;8.37;;
41263;SDS011;26998;48.714;9.414;2023-04-06T00:18:08;11.73;;;8.67;;
41263;SDS011;26998;48.714;9.414;2023-04-06T00:20:35;12.43;;;9.03;;
41263;SDS011;26998;48.714;9.414;2023-04-06T00:23:01;12.23;;;9.33;;
41263;SDS011;26998;48.714;9.414;2023-04-06T00:25:28;13.93;;;9.40;;
41263;SDS011;26998;48.714;9.414;2023-04-06T00:27:54;12.70;;;9.20;;
41263;SDS011;26998;48.714;9.414;2023-04-06T00:30:21;11.80;;;9.63;;
41263;SDS011;26998;48.714;9.414;2023-04-06T00:32:48;16.43;;;9.73;;
41263;SDS011;26998;48.714;9.414;2023-04-06T00:35:14;14.27;;;10.27;;
41263;SDS011;26998;48.714;9.414;2023-04-06T00:37:41;15.43;;;10.50;;
41263;SDS011;26998;48.714;9.414;2023-04-06T00:40:08;18.83;;;14.17;;
41263;SDS011;26998;48.714;9.414;2023-04-06T00:42:35;18.47;;;13.13;;
41263;SDS011;26998;48.714;9.414;2023-04-06T00:45:02;15.93;;;11.67;;
41263;SDS011;26998;48.714;9.414;2023-04-06T00:47:29;14.63;;;10.67;;
41263;SDS011;26998;48.714;9.414;2023-04-06T00:49:56;17.77;;;11.33;;
41263;SDS011;26998;48.714;9.414;2023-04-06T00:52:22;16.60;;;10.53;;
41263;SDS011;26998;48.714;9.414;2023-04-06T00:54:49;14.90;;;9.90;;
41263;SDS011;26998;48.714;9.414;2023-04-06T00:57:16;14.07;;;9.60;;
41263;SDS011;26998;48.714;9.414;2023-04-06T00:59:43;14.53;;;10.10;;
41263;SDS011;26998;48.714;9.414;2023-04-06T01:02:10;12.93;;;9.60;;
41263;SDS011;26998;48.714;9.414;2023-04-06T01:04:37;14.00;;;9.20;;
41263;SDS011;26998;48.714;9.414;2023-04-06T01:07:03;14.97;;;9.50;;
41263;SDS011;26998;48.714;9.414;2023-04-06T01:09:30;15.97;;;10.63;;
41263;SDS011;26998;48.714;9.414;2023-04-06T01:11:57;15.20;;;10.70;;
41263;SDS011;26998;48.714;9.414;2023-04-06T01:14:25;15.20;;;10.57;;
41263;SDS011;26998;48.714;9.414;2023-04-06T01:16:52;14.83;;;10.30;;
41263;SDS011;26998;48.714;9.414;2023-04-06T01:19:18;13.53;;;10.57;;
41263;SDS011;26998;48.714;9.414;2023-04-06T01:21:45;16.37;;;10.93;;
41263;SDS011;26998;48.714;9.414;2023-04-06T01:24:11;18.50;;;10.47;;
41263;SDS011;26998;48.714;9.414;2023-04-06T01:26:38;14.50;;;10.20;;
41263;SDS011;26998;48.714;9.414;2023-04-06T01:29:05;17.20;;;11.13;;
41263;SDS011;26998;48.714;9.414;2023-04-06T01:31:32;14.90;;;9.37;;
41263;SDS011;26998;48.714;9.414;2023-04-06T01:33:58;15.30;;;10.77;;
41263;SDS011;26998;48.714;9.414;2023-04-06T01:36:25;17.00;;;10.40;;
41263;SDS011;26998;48.714;9.414;2023-04-06T01:38:52;13.83;;;10.47;;
41263;SDS011;26998;48.714;9.414;2023-04-06T01:41:19;15.60;;;10.30;;
41263;SDS011;26998;48.714;9.414;2023-04-06T01:43:47;15.00;;;10.70;;
41263;SDS011;26998;48.714;9.414;2023-04-06T01:46:14;16.00;;;11.00;;
41263;SDS011;26998;48.714;9.414;2023-04-06T01:48:41;19.33;;;10.90;;
41263;SDS011;26998;48.714;9.414;2023-04-06T01:51:08;14.73;;;10.40;;
41263;SDS011;26998;48.714;9.414;2023-04-06T01:53:35;15.17;;;10.27;;
41263;SDS011;26998;48.714;9.414;2023-04-06T01:56:02;13.47;;;10.20;;
41263;SDS011;26998;48.714;9.414;2023-04-06T01:58:29;13.80;;;10.90;;
41263;SDS011;26998;48.714;9.414;2023-04-06T02:00:55;16.70;;;10.87;;
41263;SDS011;26998;48.714;9.414;2023-04-06T02:03:22;16.80;;;10.67;;
41263;SDS011;26998;48.714;9.414;2023-04-06T02:05:49;14.50;;;10.40;;
41263;SDS011;26998;48.714;9.414;2023-04-06T02:08:15;16.20;;;11.47;;
41263;SDS011;26998;48.714;9.414;2023-04-06T02:10:41;18.43;;;12.43;;
41263;SDS011;26998;48.714;9.414;2023-04-06T02:13:08;19.53;;;11.53;;
41263;SDS011;26998;48.714;9.414;2023-04-06T02:15:34;15.97;;;11.80;;
41263;SDS011;26998;48.714;9.414;2023-04-06T02:18:01;14.67;;;10.13;;
41263;SDS011;26998;48.714;9.414;2023-04-06T02:20:27;19.80;;;10.97;;
41263;SDS011;26998;48.714;9.414;2023-04-06T02:22:56;17.63;;;11.23;;
41263;SDS011;26998;48.714;9.414;2023-04-06T02:25:23;16.10;;;10.40;;
41263;SDS011;26998;48.714;9.414;2023-04-06T02:27:49;14.43;;;10.07;;
41263;SDS011;26998;48.714;9.414;2023-04-06T02:30:16;15.67;;;10.43;;
41263;SDS011;26998;48.714;9.414;2023-04-06T02:32:42;17.67;;;11.30;;
41263;SDS011;26998;48.714;9.414;2023-04-06T02:35:09;23.60;;;11.90;;
41263;SDS011;26998;48.714;9.414;2023-04-06T02:37:35;17.70;;;10.67;;
41263;SDS011;26998;48.714;9.414;2023-04-06T02:40:02;14.63;;;11.03;;
41263;SDS011;26998;48.714;9.414;2023-04-06T02:42:29;15.03;;;10.87;;
41263;SDS011;26998;48.714;9.414;2023-04-06T02:44:56;18.40;;;11.00;;
41263;SDS011;26998;48.714;9.414;2023-04-06T02:47:22;18.53;;;12.13;;
41263;SDS011;26998;48.714;9.414;2023-04-06T02:49:49;17.03;;;12.00;;
41263;SDS011;26998;48.714;9.414;2023-04-06T02:52:16;16.30;;;11.27;;
41263;SDS011;26998;48.714;9.414;2023-04-06T02:54:42;15.90;;;11.90;;
41263;SDS011;26998;48.714;9.414;2023-04-06T02:57:09;18.43;;;12.60;;
41263;SDS011;26998;48.714;9.414;2023-04-06T02:59:36;19.90;;;12.73;;
41263;SDS011;26998;48.714;9.414;2023-04-06T03:02:03;21.87;;;12.07;;
41263;SDS011;26998;48.714;9.414;2023-04-06T03:04:29;18.43;;;11.70;;
41263;SDS011;26998;48.714;9.414;2023-04-06T03:06:56;17.10;;;11.10;;
41263;SDS011;26998;48.714;9.414;2023-04-06T03:09:26;17.80;;;11.32;;
41263;SDS011;26998;48.714;9.414;2023-04-06T03:11:53;17.50;;;11.57;;
41263;SDS011;26998;48.714;9.414;2023-04-06T03:14:19;20.17;;;11.63;;
41263;SDS011;26998;48.714;9.414;2023-04-06T03:16:46;14.17;;;10.30;;
41263;SDS011;26998;48.714;9.414;2023-04-06T03:19:12;20.97;;;12.17;;
41263;SDS011;26998;48.714;9.414;2023-04-06T03:21:39;20.57;;;12.57;;
41263;SDS011;26998;48.714;9.414;2023-04-06T03:24:06;18.40;;;11.73;;
41263;SDS011;26998;48.714;9.414;2023-04-06T03:26:33;18.57;;;11.03;;
41263;SDS011;26998;48.714;9.414;2023-04-06T03:29:00;16.50;;;11.10;;
41263;SDS011;26998;48.714;9.414;2023-04-06T03:31:26;17.67;;;11.70;;
41263;SDS011;26998;48.714;9.414;2023-04-06T03:33:53;20.60;;;12.53;;
41263;SDS011;26998;48.714;9.414;2023-04-06T03:36:19;18.90;;;12.83;;
41263;SDS011;26998;48.714;9.414;2023-04-06T03:38:46;15.47;;;11.37;;
41263;SDS011;26998;48.714;9.414;2023-04-06T03:41:13;18.37;;;11.97;;
41263;SDS011;26998;48.714;9.414;2023-04-06T03:43:40;20.40;;;12.27;;
41263;SDS011;26998;48.714;9.414;2023-04-06T03:46:06;16.57;;;12.30;;
41263;SDS011;26998;48.714;9.414;2023-04-06T03:48:33;17.33;;;11.20;;
41263;SDS011;26998;48.714;9.414;2023-04-06T03:50:59;20.67;;;12.40;;
41263;SDS011;26998;48.714;9.414;2023-04-06T03:53:26;18.30;;;10.87;;
41263;SDS011;26998;48.714;9.414;2023-04-06T03:55:52;17.30;;;11.03;;
41263;SDS011;26998;48.714;9.414;2023-04-06T03:58:19;19.03;;;12.73;;
41263;SDS011;26998;48.714;9.414;2023-04-06T04:00:46;16.73;;;11.23;;
41263;SDS011;26998;48.714;9.414;2023-04-06T04:03:12;16.10;;;11.27;;
41263;SDS011;26998;48.714;9.414;2023-04-06T04:05:39;18.53;;;12.50;;
41263;SDS011;26998;48.714;9.414;2023-04-06T04:08:06;18.37;;;12.33;;
41263;SDS011;26998;48.714;9.414;2023-04-06T04:10:32;17.80;;;11.20;;
41263;SDS011;26998;48.714;9.414;2023-04-06T04:12:59;21.17;;;12.50;;
41263;SDS011;26998;48.714;9.414;2023-04-06T04:15:26;16.40;;;11.40;;
41263;SDS011;26998;48.714;9.414;2023-04-06T04:17:52;18.60;;;11.07;;
41263;SDS011;26998;48.714;9.414;2023-04-06T04:20:19;19.40;;;12.10;;
41263;SDS011;26998;48.714;9.414;2023-04-06T04:22:46;17.60;;;12.80;;
41263;SDS011;26998;48.714;9.414;2023-04-06T04:25:12;17.70;;;12.27;;
41263;SDS011;26998;48.714;9.414;2023-04-06T04:27:39;16.10;;;11.60;;
41263;SDS011;26998;48.714;9.414;2023-04-06T04:30:06;22.87;;;12.63;;
41263;SDS011;26998;48.714;9.414;2023-04-06T04:32:33;23.17;;;12.63;;
41263;SDS011;26998;48.714;9.414;2023-04-06T04:34:59;19.37;;;13.13;;
41263;SDS011;26998;48.714;9.414;2023-04-06T04:37:26;20.70;;;13.30;;
41263;SDS011;26998;48.714;9.414;2023-04-06T04:39:53;18.47;;;12.27;;
41263;SDS011;26998;48.714;9.414;2023-04-06T04:42:19;18.70;;;11.47;;
41263;SDS011;26998;48.714;9.414;2023-04-06T04:44:46;19.80;;;12.43;;
41263;SDS011;26998;48.714;9.414;2023-04-06T04:47:12;18.60;;;13.07;;
41263;SDS011;26998;48.714;9.414;2023-04-06T04:49:39;25.63;;;13.47;;
41263;SDS011;26998;48.714;9.414;2023-04-06T04:52:05;22.20;;;12.77;;
41263;SDS011;26998;48.714;9.414;2023-04-06T04:54:32;20.93;;;12.70;;
41263;SDS011;26998;48.714;9.414;2023-04-06T04:56:58;19.10;;;12.83;;
41263;SDS011;26998;48.714;9.414;2023-04-06T04:59:25;22.27;;;13.53;;
41263;SDS011;26998;48.714;9.414;2023-04-06T05:01:51;22.90;;;13.23;;
41263;SDS011;26998;48.714;9.414;2023-04-06T05:04:21;20.17;;;13.50;;
41263;SDS011;26998;48.714;9.414;2023-04-06T05:06:48;22.23;;;13.57;;
41263;SDS011;26998;48.714;9.414;2023-04-06T05:09:14;21.70;;;13.03;;
41263;SDS011;26998;48.714;9.414;2023-04-06T05:11:42;21.70;;;13.03;;
41263;SDS011;26998;48.714;9.414;2023-04-06T05:14:09;23.87;;;15.20;;
41263;SDS011;26998;48.714;9.414;2023-04-06T05:16:35;23.17;;;14.37;;
41263;SDS011;26998;48.714;9.414;2023-04-06T05:19:02;20.20;;;13.17;;
41263;SDS011;26998;48.714;9.414;2023-04-06T05:21:28;21.43;;;13.87;;
41263;SDS011;26998;48.714;9.414;2023-04-06T05:23:55;18.57;;;12.77;;
41263;SDS011;26998;48.714;9.414;2023-04-06T05:26:22;22.37;;;12.77;;
41263;SDS011;26998;48.714;9.414;2023-04-06T05:28:49;19.17;;;13.43;;
41263;SDS011;26998;48.714;9.414;2023-04-06T05:31:15;22.43;;;13.60;;
41263;SDS011;26998;48.714;9.414;2023-04-06T05:33:42;19.20;;;13.27;;
41263;SDS011;26998;48.714;9.414;2023-04-06T05:36:09;18.80;;;12.93;;
41263;SDS011;26998;48.714;9.414;2023-04-06T05:38:38;21.83;;;13.67;;
41263;SDS011;26998;48.714;9.414;2023-04-06T05:41:04;21.63;;;13.20;;
41263;SDS011;26998;48.714;9.414;2023-04-06T05:43:31;19.77;;;13.03;;
41263;SDS011;26998;48.714;9.414;2023-04-06T05:45:58;24.77;;;15.20;;
41263;SDS011;26998;48.714;9.414;2023-04-06T05:48:24;32.20;;;16.20;;
41263;SDS011;26998;48.714;9.414;2023-04-06T05:50:51;25.80;;;14.13;;
41263;SDS011;26998;48.714;9.414;2023-04-06T05:53:17;21.37;;;13.83;;
41263;SDS011;26998;48.714;9.414;2023-04-06T05:55:44;22.43;;;14.33;;
41263;SDS011;26998;48.714;9.414;2023-04-06T05:58:10;25.93;;;14.53;;
41263;SDS011;26998;48.714;9.414;2023-04-06T06:00:37;29.50;;;15.37;;
41263;SDS011;26998;48.714;9.414;2023-04-06T06:03:04;21.47;;;14.93;;
41263;SDS011;26998;48.714;9.414;2023-04-06T06:05:30;22.80;;;15.03;;
41263;SDS011;26998;48.714;9.414;2023-04-06T06:07:57;25.07;;;15.37;;
41263;SDS011;26998;48.714;9.414;2023-04-06T06:10:24;20.33;;;14.07;;
41263;SDS011;26998;48.714;9.414;2023-04-06T06:12:51;23.70;;;13.47;;
41263;SDS011;26998;48.714;9.414;2023-04-06T06:15:18;17.07;;;12.80;;
41263;SDS011;26998;48.714;9.414;2023-04-06T06:17:45;22.10;;;14.73;;
41263;SDS011;26998;48.714;9.414;2023-04-06T06:20:12;17.57;;;13.47;;
41263;SDS011;26998;48.714;9.414;2023-04-06T06:22:38;17.63;;;13.17;;
41263;SDS011;26998;48.714;9.414;2023-04-06T06:25:06;21.47;;;12.00;;
41263;SDS011;26998;48.714;9.414;2023-04-06T06:27:33;20.90;;;14.23;;
41263;SDS011;26998;48.714;9.414;2023-04-06T06:30:01;20.67;;;13.13;;
41263;SDS011;26998;48.714;9.414;2023-04-06T06:32:32;22.37;;;12.47;;
41263;SDS011;26998;48.714;9.414;2023-04-06T06:34:58;17.00;;;12.53;;
41263;SDS011;26998;48.714;9.414;2023-04-06T06:37:25;22.13;;;14.67;;
41263;SDS011;26998;48.714;9.414;2023-04-06T06:39:56;19.70;;;13.00;;
41263;SDS011;26998;48.714;9.414;2023-04-06T06:42:23;18.10;;;11.97;;
41263;SDS011;26998;48.714;9.414;2023-04-06T06:44:49;21.13;;;13.40;;
41263;SDS011;26998;48.714;9.414;2023-04-06T06:47:16;21.33;;;12.33;;
41263;SDS011;26998;48.714;9.414;2023-04-06T06:49:43;23.43;;;12.60;;
41263;SDS011;26998;48.714;9.414;2023-04-06T06:52:15;22.00;;;14.07;;
41263;SDS011;26998;48.714;9.414;2023-04-06T06:54:59;19.23;;;13.20;;
41263;SDS011;26998;48.714;9.414;2023-04-06T06:57:26;21.07;;;12.90;;
41263;SDS011;26998;48.714;9.414;2023-04-06T06:59:56;17.92;;;13.02;;
41263;SDS011;26998;48.714;9.414;2023-04-06T07:02:25;16.57;;;11.60;;
41263;SDS011;26998;48.714;9.414;2023-04-06T07:04:52;18.40;;;13.13;;
41263;SDS011;26998;48.714;9.414;2023-04-06T07:07:18;16.13;;;12.23;;
41263;SDS011;26998;48.714;9.414;2023-04-06T07:09:45;19.20;;;11.83;;
41263;SDS011;26998;48.714;9.414;2023-04-06T07:12:12;20.43;;;13.17;;
41263;SDS011;26998;48.714;9.414;2023-04-06T07:14:39;16.83;;;13.17;;
41263;SDS011;26998;48.714;9.414;2023-04-06T07:17:06;17.02;;;12.15;;
41263;SDS011;26998;48.714;9.414;2023-04-06T07:19:33;16.88;;;12.80;;
41263;SDS011;26998;48.714;9.414;2023-04-06T07:21:59;21.00;;;13.03;;
41263;SDS011;26998;48.714;9.414;2023-04-06T07:24:26;17.50;;;12.98;;
41263;SDS011;26998;48.714;9.414;2023-04-06T07:26:55;18.10;;;12.35;;
41263;SDS011;26998;48.714;9.414;2023-04-06T07:29:21;18.05;;;13.57;;
41263;SDS011;26998;48.714;9.414;2023-04-06T07:31:49;17.35;;;12.88;;
41263;SDS011;26998;48.714;9.414;2023-04-06T07:34:15;15.85;;;12.68;;
41263;SDS011;26998;48.714;9.414;2023-04-06T07:36:42;19.23;;;12.60;;
41263;SDS011;26998;48.714;9.414;2023-04-06T07:39:09;19.88;;;12.13;;
41263;SDS011;26998;48.714;9.414;2023-04-06T07:41:35;17.65;;;12.10;;
41263;SDS011;26998;48.714;9.414;2023-04-06T07:44:02;14.10;;;11.73;;
41263;SDS011;26998;48.714;9.414;2023-04-06T07:46:30;20.77;;;14.75;;
41263;SDS011;26998;48.714;9.414;2023-04-06T07:48:57;17.52;;;13.23;;
41263;SDS011;26998;48.714;9.414;2023-04-06T07:51:25;19.73;;;13.30;;
41263;SDS011;26998;48.714;9.414;2023-04-06T07:53:52;18.92;;;13.15;;
41263;SDS011;26998;48.714;9.414;2023-04-06T07:56:19;18.02;;;13.07;;
41263;SDS011;26998;48.714;9.414;2023-04-06T07:58:45;17.08;;;12.48;;
41263;SDS011;26998;48.714;9.414;2023-04-06T08:01:12;17.05;;;13.07;;
41263;SDS011;26998;48.714;9.414;2023-04-06T08:03:39;15.68;;;12.52;;
41263;SDS011;26998;48.714;9.414;2023-04-06T08:06:06;17.08;;;12.02;;
41263;SDS011;26998;48.714;9.414;2023-04-06T08:08:32;19.90;;;13.50;;
41263;SDS011;26998;48.714;9.414;2023-04-06T08:10:59;18.38;;;12.38;;
41263;SDS011;26998;48.714;9.414;2023-04-06T08:13:27;13.55;;;11.50;;
41263;SDS011;26998;48.714;9.414;2023-04-06T08:15:54;16.63;;;12.73;;
41263;SDS011;26998;48.714;9.414;2023-04-06T08:18:22;19.52;;;12.35;;
41263;SDS011;26998;48.714;9.414;2023-04-06T08:20:49;17.17;;;11.75;;
41263;SDS011;26998;48.714;9.414;2023-04-06T08:23:15;16.98;;;13.38;;
41263;SDS011;26998;48.714;9.414;2023-04-06T08:25:42;16.08;;;12.18;;
41263;SDS011;26998;48.714;9.414;2023-04-06T08:28:09;20.52;;;12.85;;
41263;SDS011;26998;48.714;9.414;2023-04-06T08:30:39;17.15;;;12.35;;
41263;SDS011;26998;48.714;9.414;2023-04-06T08:33:06;18.35;;;12.25;;
41263;SDS011;26998;48.714;9.414;2023-04-06T08:35:33;16.45;;;12.07;;
41263;SDS011;26998;48.714;9.414;2023-04-06T08:38:00;17.30;;;12.15;;
41263;SDS011;26998;48.714;9.414;2023-04-06T08:40:26;15.65;;;12.10;;
41263;SDS011;26998;48.714;9.414;2023-04-06T08:42:56;17.77;;;12.95;;
41263;SDS011;26998;48.714;9.414;2023-04-06T08:45:27;18.30;;;11.70;;
41263;SDS011;26998;48.714;9.414;2023-04-06T08:47:54;25.80;;;12.82;;
41263;SDS011;26998;48.714;9.414;2023-04-06T08:50:24;16.27;;;12.13;;
41263;SDS011;26998;48.714;9.414;2023-04-06T08:52:51;17.38;;;11.65;;
41263;SDS011;26998;48.714;9.414;2023-04-06T08:55:17;24.75;;;13.63;;
41263;SDS011;26998;48.714;9.414;2023-04-06T08:57:44;18.05;;;12.48;;
41263;SDS011;26998;48.714;9.414;2023-04-06T09:00:13;16.63;;;12.50;;
41263;SDS011;26998;48.714;9.414;2023-04-06T09:02:42;15.35;;;12.63;;
41263;SDS011;26998;48.714;9.414;2023-04-06T09:05:10;19.42;;;12.82;;
41263;SDS011;26998;48.714;9.414;2023-04-06T09:07:37;16.70;;;12.70;;
41263;SDS011;26998;48.714;9.414;2023-04-06T09:10:05;15.68;;;11.43;;
41263;SDS011;26998;48.714;9.414;2023-04-06T09:12:32;18.38;;;12.20;;
41263;SDS011;26998;48.714;9.414;2023-04-06T09:15:00;15.88;;;11.93;;
41263;SDS011;26998;48.714;9.414;2023-04-06T09:17:28;14.23;;;11.00;;
41263;SDS011;26998;48.714;9.414;2023-04-06T09:19:56;16.02;;;12.10;;
41263;SDS011;26998;48.714;9.414;2023-04-06T09:22:23;13.98;;;11.02;;
41263;SDS011;26998;48.714;9.414;2023-04-06T09:24:52;16.27;;;11.88;;
41263;SDS011;26998;48.714;9.414;2023-04-06T09:27:32;15.45;;;10.88;;
41263;SDS011;26998;48.714;9.414;2023-04-06T09:30:04;17.45;;;11.43;;
41263;SDS011;26998;48.714;9.414;2023-04-06T09:32:48;14.55;;;10.85;;
41263;SDS011;26998;48.714;9.414;2023-04-06T09:35:22;14.25;;;11.20;;
41263;SDS011;26998;48.714;9.414;2023-04-06T09:37:50;16.20;;;11.65;;
41263;SDS011;26998;48.714;9.414;2023-04-06T09:40:19;16.42;;;11.52;;
41263;SDS011;26998;48.714;9.414;2023-04-06T09:42:46;14.32;;;10.48;;
41263;SDS011;26998;48.714;9.414;2023-04-06T09:45:15;18.27;;;11.57;;
41263;SDS011;26998;48.714;9.414;2023-04-06T09:47:43;18.45;;;11.02;;
41263;SDS011;26998;48.714;9.414;2023-04-06T09:50:11;13.45;;;10.00;;
41263;SDS011;26998;48.714;9.414;2023-04-06T09:52:41;17.00;;;10.50;;
41263;SDS011;26998;48.714;9.414;2023-04-06T09:58:21;14.00;;;10.20;;
41263;SDS011;26998;48.714;9.414;2023-04-06T10:00:59;14.35;;;9.48;;
41263;SDS011;26998;48.714;9.414;2023-04-06T10:03:41;12.45;;;8.02;;
41263;SDS011;26998;48.714;9.414;2023-04-06T10:06:15;10.27;;;7.97;;
41263;SDS011;26998;48.714;9.414;2023-04-06T10:08:45;9.50;;;7.72;;
41263;SDS011;26998;48.714;9.414;2023-04-06T10:11:14;8.15;;;6.25;;
41263;SDS011;26998;48.714;9.414;2023-04-06T10:13:41;7.88;;;6.20;;
41263;SDS011;26998;48.714;9.414;2023-04-06T10:16:08;7.70;;;6.18;;
41263;SDS011;26998;48.714;9.414;2023-04-06T10:18:35;9.52;;;6.30;;
41263;SDS011;26998;48.714;9.414;2023-04-06T10:21:07;10.48;;;6.40;;
41263;SDS011;26998;48.714;9.414;2023-04-06T10:23:43;9.52;;;7.50;;
41263;SDS011;26998;48.714;9.414;2023-04-06T10:26:15;8.50;;;7.05;;
41263;SDS011;26998;48.714;9.414;2023-04-06T10:28:43;8.15;;;6.22;;
41263;SDS011;26998;48.714;9.414;2023-04-06T10:31:11;9.32;;;5.97;;
41263;SDS011;26998;48.714;9.414;2023-04-06T10:33:38;7.40;;;5.72;;
41263;SDS011;26998;48.714;9.414;2023-04-06T10:36:09;9.55;;;6.90;;
41263;SDS011;26998;48.714;9.414;2023-04-06T10:38:37;11.25;;;6.97;;
41263;SDS011;26998;48.714;9.414;2023-04-06T10:41:10;11.70;;;7.80;;
41263;SDS011;26998;48.714;9.414;2023-04-06T10:43:38;13.35;;;8.32;;
41263;SDS011;26998;48.714;9.414;2023-04-06T10:46:07;11.73;;;8.10;;
41263;SDS011;26998;48.714;9.414;2023-04-06T10:48:39;8.20;;;7.32;;
41263;SDS011;26998;48.714;9.414;2023-04-06T10:51:08;11.77;;;8.43;;
41263;SDS011;26998;48.714;9.414;2023-04-06T10:53:37;10.20;;;7.95;;
41263;SDS011;26998;48.714;9.414;2023-04-06T10:56:04;12.10;;;8.77;;
41263;SDS011;26998;48.714;9.414;2023-04-06T10:58:36;12.15;;;8.00;;
41263;SDS011;26998;48.714;9.414;2023-04-06T11:01:04;13.25;;;9.43;;
41263;SDS011;26998;48.714;9.414;2023-04-06T11:03:30;12.05;;;8.15;;
41263;SDS011;26998;48.714;9.414;2023-04-06T11:05:57;11.40;;;7.82;;
41263;SDS011;26998;48.714;9.414;2023-04-06T11:08:30;9.90;;;7.05;;
41263;SDS011;26998;48.714;9.414;2023-04-06T11:11:05;10.38;;;7.10;;
41263;SDS011;26998;48.714;9.414;2023-04-06T11:13:41;7.15;;;6.18;;
41263;SDS011;26998;48.714;9.414;2023-04-06T11:16:14;8.52;;;7.40;;
41263;SDS011;26998;48.714;9.414;2023-04-06T11:21:18;7.00;;;4.97;;
41263;SDS011;26998;48.714;9.414;2023-04-06T11:23:45;7.80;;;6.15;;
41263;SDS011;26998;48.714;9.414;2023-04-06T11:26:12;8.55;;;7.30;;
41263;SDS011;26998;48.714;9.414;2023-04-06T11:28:40;7.50;;;6.72;;
41263;SDS011;26998;48.714;9.414;2023-04-06T11:31:09;7.63;;;6.03;;
41263;SDS011;26998;48.714;9.414;2023-04-06T11:33:37;7.35;;;5.93;;
41263;SDS011;26998;48.714;9.414;2023-04-06T11:36:05;8.38;;;6.63;;
41263;SDS011;26998;48.714;9.414;2023-04-06T11:38:32;8.48;;;7.00;;
41263;SDS011;26998;48.714;9.414;2023-04-06T11:41:00;18.15;;;6.53;;
41263;SDS011;26998;48.714;9.414;2023-04-06T11:43:31;8.82;;;6.43;;
41263;SDS011;26998;48.714;9.414;2023-04-06T11:46:01;10.02;;;6.82;;
41263;SDS011;26998;48.714;9.414;2023-04-06T11:48:29;11.63;;;7.00;;
41263;SDS011;26998;48.714;9.414;2023-04-06T11:50:57;9.07;;;6.40;;
41263;SDS011;26998;48.714;9.414;2023-04-06T11:53:24;7.38;;;6.18;;
41263;SDS011;26998;48.714;9.414;2023-04-06T11:55:51;10.32;;;6.82;;
41263;SDS011;26998;48.714;9.414;2023-04-06T11:58:21;9.00;;;6.75;;
41263;SDS011;26998;48.714;9.414;2023-04-06T12:00:48;8.40;;;6.85;;
41263;SDS011;26998;48.714;9.414;2023-04-06T12:03:15;8.43;;;6.20;;
41263;SDS011;26998;48.714;9.414;2023-04-06T12:05:43;10.35;;;6.80;;
41263;SDS011;26998;48.714;9.414;2023-04-06T12:08:10;9.52;;;7.10;;
41263;SDS011;26998;48.714;9.414;2023-04-06T12:10:37;10.13;;;7.57;;
41263;SDS011;26998;48.714;9.414;2023-04-06T12:13:03;10.52;;;7.57;;
41263;SDS011;26998;48.714;9.414;2023-04-06T12:15:30;9.40;;;7.40;;
41263;SDS011;26998;48.714;9.414;2023-04-06T12:17:57;12.60;;;7.53;;
41263;SDS011;26998;48.714;9.414;2023-04-06T12:20:24;13.52;;;7.72;;
41263;SDS011;26998;48.714;9.414;2023-04-06T12:22:52;13.30;;;7.53;;
41263;SDS011;26998;48.714;9.414;2023-04-06T12:25:19;8.00;;;6.22;;
41263;SDS011;26998;48.714;9.414;2023-04-06T12:27:45;10.93;;;6.82;;
41263;SDS011;26998;48.714;9.414;2023-04-06T12:30:12;10.15;;;6.78;;
41263;SDS011;26998;48.714;9.414;2023-04-06T12:32:39;9.45;;;6.88;;
41263;SDS011;26998;48.714;9.414;2023-04-06T12:35:06;7.95;;;6.50;;
41263;SDS011;26998;48.714;9.414;2023-04-06T12:37:33;8.45;;;6.25;;
41263;SDS011;26998;48.714;9.414;2023-04-06T12:39:59;8.80;;;6.43;;
41263;SDS011;26998;48.714;9.414;2023-04-06T12:42:25;9.38;;;6.60;;
41263;SDS011;26998;48.714;9.414;2023-04-06T12:44:52;10.15;;;6.75;;
41263;SDS011;26998;48.714;9.414;2023-04-06T12:47:19;12.77;;;7.00;;
41263;SDS011;26998;48.714;9.414;2023-04-06T12:49:46;9.98;;;7.03;;
41263;SDS011;26998;48.714;9.414;2023-04-06T12:52:12;8.60;;;6.30;;
41263;SDS011;26998;48.714;9.414;2023-04-06T12:54:38;9.98;;;6.90;;
41263;SDS011;26998;48.714;9.414;2023-04-06T12:57:05;8.73;;;6.45;;
41263;SDS011;26998;48.714;9.414;2023-04-06T12:59:31;9.57;;;6.97;;
41263;SDS011;26998;48.714;9.414;2023-04-06T13:01:58;7.28;;;6.32;;
41263;SDS011;26998;48.714;9.414;2023-04-06T13:04:32;8.90;;;6.50;;
41263;SDS011;26998;48.714;9.414;2023-04-06T13:06:59;9.10;;;6.32;;
41263;SDS011;26998;48.714;9.414;2023-04-06T13:09:25;9.77;;;7.00;;
41263;SDS011;26998;48.714;9.414;2023-04-06T13:11:52;10.88;;;7.00;;
41263;SDS011;26998;48.714;9.414;2023-04-06T13:14:18;17.42;;;6.45;;
41263;SDS011;26998;48.714;9.414;2023-04-06T13:16:45;9.85;;;6.55;;
41263;SDS011;26998;48.714;9.414;2023-04-06T13:19:11;8.32;;;6.00;;
41263;SDS011;26998;48.714;9.414;2023-04-06T13:21:38;7.10;;;5.78;;
41263;SDS011;26998;48.714;9.414;2023-04-06T13:24:05;9.38;;;6.10;;
41263;SDS011;26998;48.714;9.414;2023-04-06T13:26:32;14.43;;;6.25;;
41263;SDS011;26998;48.714;9.414;2023-04-06T13:28:59;8.25;;;6.22;;
41263;SDS011;26998;48.714;9.414;2023-04-06T13:31:26;9.80;;;6.80;;
41263;SDS011;26998;48.714;9.414;2023-04-06T13:33:52;9.60;;;7.20;;
41263;SDS011;26998;48.714;9.414;2023-04-06T13:36:19;7.93;;;6.72;;
41263;SDS011;26998;48.714;9.414;2023-04-06T13:38:46;8.43;;;6.28;;
41263;SDS011;26998;48.714;9.414;2023-04-06T13:41:19;8.52;;;6.28;;
41263;SDS011;26998;48.714;9.414;2023-04-06T13:43:46;8.30;;;6.38;;
41263;SDS011;26998;48.714;9.414;2023-04-06T13:46:13;8.48;;;5.68;;
41263;SDS011;26998;48.714;9.414;2023-04-06T13:48:40;10.07;;;5.68;;
41263;SDS011;26998;48.714;9.414;2023-04-06T13:51:08;6.97;;;5.30;;
41263;SDS011;26998;48.714;9.414;2023-04-06T13:53:36;11.15;;;6.38;;
41263;SDS011;26998;48.714;9.414;2023-04-06T13:56:05;10.30;;;6.78;;
41263;SDS011;26998;48.714;9.414;2023-04-06T13:58:33;9.32;;;6.22;;
41263;SDS011;26998;48.714;9.414;2023-04-06T14:01:03;6.78;;;5.43;;
41263;SDS011;26998;48.714;9.414;2023-04-06T14:03:34;6.57;;;5.13;;
41263;SDS011;26998;48.714;9.414;2023-04-06T14:06:01;6.60;;;5.63;;
41263;SDS011;26998;48.714;9.414;2023-04-06T14:08:40;7.07;;;5.55;;
41263;SDS011;26998;48.714;9.414;2023-04-06T14:11:11;9.57;;;5.93;;
41263;SDS011;26998;48.714;9.414;2023-04-06T14:13:39;9.00;;;5.95;;
41263;SDS011;26998;48.714;9.414;2023-04-06T14:16:06;9.35;;;6.65;;
41263;SDS011;26998;48.714;9.414;2023-04-06T14:18:33;7.70;;;5.03;;
41263;SDS011;26998;48.714;9.414;2023-04-06T14:20:59;6.70;;;4.97;;
41263;SDS011;26998;48.714;9.414;2023-04-06T14:23:29;6.57;;;4.72;;
41263;SDS011;26998;48.714;9.414;2023-04-06T14:26:02;6.72;;;5.25;;
41263;SDS011;26998;48.714;9.414;2023-04-06T14:28:30;6.97;;;4.68;;
41263;SDS011;26998;48.714;9.414;2023-04-06T14:30:58;7.10;;;4.93;;
41263;SDS011;26998;48.714;9.414;2023-04-06T14:33:26;5.45;;;4.55;;
41263;SDS011;26998;48.714;9.414;2023-04-06T14:35:53;6.03;;;4.70;;